createdAt,value
2022-11-16T00:02:29.912Z,16.50
2022-11-16T00:05:35.770Z,16.33
2022-11-16T00:08:42.176Z,19.23
2022-11-16T00:11:45.740Z,17.70
2022-11-16T00:14:48.905Z,18.15
2022-11-16T00:17:52.307Z,17.65
2022-11-16T00:20:55.732Z,16.85
2022-11-16T00:24:00.223Z,17.65
2022-11-16T00:27:03.400Z,16.30
2022-11-16T00:30:07.577Z,17.45
2022-11-16T00:33:15.607Z,16.17
2022-11-16T00:36:18.871Z,16.15
2022-11-16T00:39:25.452Z,15.73
2022-11-16T00:42:28.604Z,14.93
2022-11-16T00:45:31.941Z,15.27
2022-11-16T00:48:35.604Z,13.75
2022-11-16T00:51:39.441Z,14.52
2022-11-16T00:54:44.870Z,15.02
2022-11-16T00:57:48.136Z,13.52
2022-11-16T01:00:52.477Z,13.95
2022-11-16T01:03:56.468Z,13.95
2022-11-16T01:06:59.948Z,14.15
2022-11-16T01:10:05.160Z,13.18
2022-11-16T01:13:08.738Z,14.43
2022-11-16T01:16:14.517Z,15.05
2022-11-16T01:19:17.680Z,13.82
2022-11-16T01:22:21.314Z,13.63
2022-11-16T01:25:26.087Z,13.43
2022-11-16T01:28:32.795Z,14.30
2022-11-16T01:31:36.724Z,12.57
2022-11-16T01:34:41.102Z,15.43
2022-11-16T01:37:58.572Z,13.18
2022-11-16T01:41:04.375Z,15.43
2022-11-16T01:44:46.562Z,12.80
2022-11-16T01:47:57.908Z,13.15
2022-11-16T01:51:05.943Z,14.38
2022-11-16T01:54:13.403Z,13.55
2022-11-16T01:57:32.611Z,15.82
2022-11-16T02:00:41.709Z,14.00
2022-11-16T02:04:02.757Z,14.63
2022-11-16T02:07:19.416Z,15.63
2022-11-16T02:10:36.109Z,15.75
2022-11-16T02:13:52.520Z,14.60
2022-11-16T02:17:02.683Z,15.90
2022-11-16T02:20:30.968Z,18.20
2022-11-16T02:24:22.697Z,15.82
2022-11-16T02:28:05.372Z,17.67
2022-11-16T02:31:16.965Z,18.67
2022-11-16T02:34:22.230Z,17.83
2022-11-16T02:37:28.374Z,20.73
2022-11-16T02:40:34.646Z,21.65
2022-11-16T02:43:42.596Z,22.33
2022-11-16T02:46:51.135Z,22.35
2022-11-16T02:49:59.988Z,22.67
2022-11-16T02:53:04.991Z,22.90
2022-11-16T02:56:14.239Z,22.88
2022-11-16T02:59:18.414Z,21.83
2022-11-16T03:02:31.200Z,24.17
2022-11-16T03:05:42.121Z,23.85
2022-11-16T03:08:51.467Z,22.17
2022-11-16T03:11:59.376Z,24.13
2022-11-16T03:15:06.961Z,25.60
2022-11-16T03:18:16.440Z,26.35
2022-11-16T03:21:31.405Z,23.92
2022-11-16T03:24:34.659Z,23.27
2022-11-16T03:27:40.467Z,24.75
2022-11-16T03:30:48.770Z,24.45
2022-11-16T03:33:56.967Z,25.23
2022-11-16T03:37:01.675Z,22.55
2022-11-16T03:40:07.215Z,24.77
2022-11-16T03:43:11.802Z,22.65
2022-11-16T03:46:17.422Z,26.38
2022-11-16T03:49:24.019Z,25.85
2022-11-16T03:52:29.733Z,22.88
2022-11-16T03:55:36.257Z,27.10
2022-11-16T03:58:39.915Z,24.45
2022-11-16T04:01:44.859Z,31.42
2022-11-16T04:05:08.873Z,27.55
2022-11-16T04:08:33.605Z,27.15
2022-11-16T04:11:55.501Z,28.40
2022-11-16T04:15:21.841Z,26.02
2022-11-16T04:18:42.579Z,27.30
2022-11-16T04:22:08.354Z,29.95
2022-11-16T04:25:17.102Z,29.50
2022-11-16T04:28:25.514Z,28.48
2022-11-16T04:35:43.549Z,28.60
2022-11-16T04:38:57.285Z,28.08
2022-11-16T04:42:19.947Z,31.60
2022-11-16T04:45:50.145Z,27.65
2022-11-16T04:48:56.803Z,28.95
2022-11-16T04:52:28.136Z,27.88
2022-11-16T04:55:37.826Z,29.70
2022-11-16T04:58:46.373Z,30.08
2022-11-16T05:02:07.269Z,27.80
2022-11-16T05:05:16.464Z,27.52
2022-11-16T05:08:27.532Z,27.73
2022-11-16T05:11:39.893Z,29.30
2022-11-16T05:14:45.804Z,28.10
2022-11-16T05:17:55.002Z,26.90
2022-11-16T05:21:04.308Z,26.27
2022-11-16T05:24:32.971Z,27.48
2022-11-16T05:27:41.695Z,30.65
2022-11-16T05:30:48.266Z,27.50
2022-11-16T05:33:59.456Z,29.52
2022-11-16T05:37:04.636Z,28.83
2022-11-16T05:40:19.649Z,29.02
2022-11-16T05:47:05.561Z,28.08
2022-11-16T05:50:15.945Z,27.80
2022-11-16T05:53:24.737Z,26.15
2022-11-16T05:57:01.840Z,26.58
2022-11-16T06:00:20.456Z,25.88
2022-11-16T06:03:36.446Z,25.83
2022-11-16T06:06:48.526Z,27.95
2022-11-16T06:09:53.794Z,27.00
2022-11-16T06:12:59.754Z,27.63
2022-11-16T06:16:05.642Z,26.70
2022-11-16T06:19:11.218Z,28.33
2022-11-16T06:22:15.268Z,27.23
2022-11-16T06:25:23.413Z,28.25
2022-11-16T06:28:32.780Z,28.67
2022-11-16T06:31:36.987Z,27.73
2022-11-16T06:34:40.657Z,28.65
2022-11-16T06:37:45.777Z,27.67
2022-11-16T06:40:51.954Z,28.83
2022-11-16T06:43:57.070Z,26.52
2022-11-16T06:47:07.427Z,27.58
2022-11-16T07:18:26.557Z,27.55
2022-11-16T07:21:31.688Z,26.77
2022-11-16T07:24:37.930Z,26.90
2022-11-16T07:27:41.602Z,27.42
2022-11-16T07:30:48.220Z,28.83
2022-11-16T07:33:58.902Z,27.42
2022-11-16T07:37:25.532Z,27.85
2022-11-16T07:40:28.849Z,30.05
2022-11-16T07:43:35.031Z,29.45
2022-11-16T07:46:48.364Z,32.15
2022-11-16T07:49:54.312Z,31.77
2022-11-16T07:56:04.820Z,33.65
2022-11-16T07:59:10.232Z,32.17
2022-11-16T08:02:17.897Z,34.58
2022-11-16T08:05:22.837Z,33.92
2022-11-16T08:08:27.442Z,34.40
2022-11-16T08:11:31.652Z,33.33
2022-11-16T08:14:34.782Z,32.38
2022-11-16T08:17:39.191Z,33.83
2022-11-16T08:20:45.676Z,30.63
2022-11-16T08:23:50.673Z,30.30
2022-11-16T08:26:58.761Z,35.33
2022-11-16T08:30:03.131Z,31.63
2022-11-16T08:33:08.108Z,31.52
2022-11-16T08:36:17.278Z,32.20
2022-11-16T08:39:22.073Z,30.00
2022-11-16T08:42:25.849Z,31.33
2022-11-16T08:45:30.057Z,31.83
2022-11-16T08:48:33.918Z,30.95
2022-11-16T08:51:38.551Z,29.77
2022-11-16T08:54:42.514Z,30.10
2022-11-16T08:57:46.658Z,28.85
2022-11-16T09:00:53.762Z,29.67
2022-11-16T09:03:57.622Z,28.50
2022-11-16T09:07:02.181Z,27.90
2022-11-16T09:10:08.506Z,29.08
2022-11-16T09:13:11.832Z,27.83
2022-11-16T09:16:16.689Z,28.85
2022-11-16T09:19:20.938Z,27.02
2022-11-16T09:22:25.708Z,28.95
2022-11-16T09:25:28.861Z,28.63
2022-11-16T09:28:32.830Z,28.42
2022-11-16T09:31:37.397Z,28.42
2022-11-16T09:34:40.596Z,26.65
2022-11-16T09:37:45.206Z,29.70
2022-11-16T09:40:48.963Z,28.25
2022-11-16T09:43:59.990Z,27.92
2022-11-16T09:47:03.673Z,28.27
2022-11-16T09:50:08.738Z,28.25
2022-11-16T09:53:34.789Z,29.05
2022-11-16T09:56:41.373Z,27.88
2022-11-16T09:59:48.930Z,26.02
2022-11-16T10:03:02.744Z,26.00
2022-11-16T10:06:09.339Z,27.15
2022-11-16T10:09:14.858Z,25.77
2022-11-16T10:12:24.103Z,27.77
2022-11-16T10:15:42.902Z,23.20
2022-11-16T10:18:55.035Z,24.95
2022-11-16T10:22:09.931Z,24.60
2022-11-16T10:25:17.633Z,25.67
2022-11-16T10:28:52.762Z,25.98
2022-11-16T10:35:17.041Z,26.63
2022-11-16T10:38:23.387Z,25.88
2022-11-16T10:41:32.741Z,24.17
2022-11-16T10:44:41.354Z,22.27
2022-11-16T10:47:50.252Z,25.50
2022-11-16T10:50:55.609Z,25.92
2022-11-16T10:53:58.911Z,24.45
2022-11-16T10:57:06.004Z,24.20
2022-11-16T11:00:15.209Z,26.05
2022-11-16T11:03:32.305Z,26.40
2022-11-16T11:06:40.280Z,23.25
2022-11-16T11:09:43.480Z,24.67
2022-11-16T11:13:03.071Z,19.92
2022-11-16T11:16:16.356Z,22.73
2022-11-16T11:19:25.033Z,23.83
2022-11-16T11:22:30.745Z,23.40
2022-11-16T11:25:36.918Z,23.98
2022-11-16T11:28:48.754Z,25.55
2022-11-16T11:31:55.479Z,19.60
2022-11-16T11:35:00.070Z,22.30
2022-11-16T11:38:08.162Z,21.17
2022-11-16T11:41:19.968Z,21.10
2022-11-16T11:44:37.032Z,20.25
2022-11-16T11:47:59.032Z,21.58
2022-11-16T11:51:05.687Z,20.40
2022-11-16T11:54:19.114Z,17.60
2022-11-16T11:57:24.894Z,18.58
2022-11-16T12:00:28.325Z,17.65
2022-11-16T12:03:44.738Z,15.63
2022-11-16T12:06:57.722Z,16.65
2022-11-16T12:10:14.029Z,16.67
2022-11-16T12:13:36.293Z,15.98
2022-11-16T12:16:49.182Z,16.38
2022-11-16T12:20:09.082Z,14.88
2022-11-16T12:23:36.501Z,18.10
2022-11-16T12:26:54.108Z,16.05
2022-11-16T12:30:03.656Z,13.57
2022-11-16T12:33:22.543Z,14.57
2022-11-16T12:36:35.292Z,15.07
2022-11-16T12:39:44.480Z,14.20
2022-11-16T12:42:54.855Z,14.45
2022-11-16T12:46:11.610Z,15.35
2022-11-16T12:49:32.707Z,14.77
2022-11-16T12:52:54.423Z,14.48
2022-11-16T12:56:04.587Z,14.13
2022-11-16T12:59:31.940Z,13.95
2022-11-16T13:02:54.588Z,13.95
2022-11-16T13:06:03.165Z,14.10
2022-11-16T13:09:13.665Z,13.88
2022-11-16T13:12:19.247Z,16.45
2022-11-16T13:15:35.632Z,13.88
2022-11-16T13:18:44.044Z,14.25
2022-11-16T13:21:54.724Z,14.20
2022-11-16T13:25:04.446Z,13.52
2022-11-16T13:28:17.882Z,12.25
2022-11-16T13:31:31.483Z,13.02
2022-11-16T13:34:39.054Z,14.55
2022-11-16T13:37:43.882Z,11.63
2022-11-16T13:40:47.271Z,11.10
2022-11-16T13:43:51.081Z,12.43
2022-11-16T13:46:59.654Z,11.70
2022-11-16T13:50:04.238Z,11.05
2022-11-16T13:54:04.079Z,11.95
2022-11-16T13:56:49.259Z,12.02
2022-11-16T14:00:09.765Z,10.93
2022-11-16T14:03:38.490Z,12.85
2022-11-16T14:06:59.277Z,13.52
2022-11-16T14:10:05.567Z,14.90
2022-11-16T14:13:39.079Z,15.55
2022-11-16T14:16:58.047Z,15.63
2022-11-16T14:20:02.709Z,14.38
2022-11-16T14:23:17.344Z,12.32
2022-11-16T14:26:24.683Z,16.65
2022-11-16T14:29:53.512Z,12.90
2022-11-16T14:32:58.366Z,18.30
2022-11-16T14:36:05.511Z,19.02
2022-11-16T14:39:35.280Z,17.38
2022-11-16T14:43:14.910Z,17.25
2022-11-16T14:46:21.316Z,14.18
2022-11-16T14:49:26.999Z,9.38
2022-11-16T14:52:47.464Z,8.73
2022-11-16T14:55:50.657Z,8.52
2022-11-16T14:58:56.563Z,6.70
2022-11-16T15:02:03.703Z,5.82
2022-11-16T15:05:08.147Z,9.17
2022-11-16T15:08:20.054Z,11.68
2022-11-16T15:11:48.148Z,10.52
2022-11-16T15:14:53.730Z,10.00
2022-11-16T15:18:07.890Z,13.20
2022-11-16T15:21:22.523Z,13.52
2022-11-16T15:24:31.569Z,13.80
2022-11-16T15:27:38.606Z,14.65
2022-11-16T15:30:42.383Z,16.27
2022-11-16T15:33:47.082Z,14.60
2022-11-16T15:36:50.288Z,12.45
2022-11-16T15:39:56.410Z,11.32
2022-11-16T15:43:01.122Z,9.65
2022-11-16T15:46:05.678Z,10.20
2022-11-16T15:49:20.710Z,13.30
2022-11-16T15:52:47.404Z,9.70
2022-11-16T15:55:52.114Z,10.32
2022-11-16T15:58:57.157Z,9.55
2022-11-16T16:02:00.489Z,9.77
2022-11-16T16:05:03.660Z,7.40
2022-11-16T16:08:26.535Z,8.20
2022-11-16T16:11:31.129Z,8.50
2022-11-16T16:14:34.875Z,9.20
2022-11-16T16:17:52.713Z,6.55
2022-11-16T16:20:59.561Z,7.05
2022-11-16T16:24:03.775Z,8.30
2022-11-16T16:27:13.599Z,8.68
2022-11-16T16:30:18.408Z,7.68
2022-11-16T16:35:17.738Z,7.63
2022-11-16T16:38:25.010Z,7.60
2022-11-16T16:41:35.003Z,10.63
2022-11-16T16:44:38.992Z,10.20
2022-11-16T16:47:42.150Z,10.55
2022-11-16T16:50:46.785Z,9.73
2022-11-16T16:53:49.931Z,10.73
2022-11-16T16:56:53.397Z,13.35
2022-11-16T16:59:58.098Z,15.35
2022-11-16T17:03:01.284Z,14.00
2022-11-16T17:06:06.219Z,12.65
2022-11-16T17:09:12.019Z,13.90
2022-11-16T17:12:15.214Z,13.75
2022-11-16T17:15:19.621Z,13.27
2022-11-16T17:18:23.339Z,14.68
2022-11-16T17:21:28.059Z,17.77
2022-11-16T17:24:31.303Z,17.80
2022-11-16T17:27:34.740Z,16.10
2022-11-16T17:30:38.125Z,17.40
2022-11-16T17:33:43.830Z,21.77
2022-11-16T17:36:48.756Z,19.42
2022-11-16T17:39:51.881Z,23.90
2022-11-16T17:43:10.256Z,20.67
2022-11-16T17:46:49.315Z,25.00
2022-11-16T17:49:59.726Z,29.50
2022-11-16T17:53:04.742Z,23.35
2022-11-16T17:56:08.635Z,36.33
2022-11-16T17:59:11.894Z,48.50
2022-11-16T18:02:15.137Z,92.28
2022-11-16T18:05:18.344Z,56.00
2022-11-16T18:08:22.901Z,35.88
2022-11-16T18:11:27.689Z,27.48
2022-11-16T18:14:30.883Z,30.05
2022-11-16T18:17:35.347Z,28.98
2022-11-16T18:20:38.947Z,29.25
2022-11-16T18:23:43.909Z,29.70
2022-11-16T18:26:47.172Z,28.98
2022-11-16T18:29:50.517Z,26.38
2022-11-16T18:32:54.108Z,31.70
2022-11-16T18:35:57.672Z,39.00
2022-11-16T18:39:02.350Z,33.35
2022-11-16T18:42:05.839Z,40.10
2022-11-16T18:45:09.990Z,34.03
2022-11-16T18:48:13.253Z,31.48
2022-11-16T18:51:17.381Z,37.50
2022-11-16T18:54:21.954Z,31.10
2022-11-16T18:57:25.144Z,28.55
2022-11-16T19:00:28.328Z,35.17
2022-11-16T19:03:32.607Z,29.23
2022-11-16T19:06:35.931Z,25.02
2022-11-16T19:09:40.443Z,29.95
2022-11-16T19:12:43.995Z,35.20
2022-11-16T19:15:47.218Z,35.55
2022-11-16T19:18:50.597Z,30.65
2022-11-16T19:21:56.088Z,26.60
2022-11-16T19:25:05.822Z,27.75
2022-11-16T19:28:09.467Z,30.38
2022-11-16T19:31:14.818Z,27.48
2022-11-16T19:34:17.950Z,26.13
2022-11-16T19:37:21.051Z,35.13
2022-11-16T19:40:25.612Z,27.20
2022-11-16T19:43:29.080Z,28.00
2022-11-16T19:46:33.787Z,30.50
2022-11-16T19:49:37.283Z,25.15
2022-11-16T19:52:40.405Z,31.88
2022-11-16T19:56:02.146Z,28.58
2022-11-16T19:59:05.384Z,20.02
2022-11-16T20:02:09.994Z,28.35
2022-11-16T20:05:13.383Z,31.30
2022-11-16T20:08:16.896Z,28.45
2022-11-16T20:11:23.003Z,33.03
2022-11-16T20:14:26.491Z,27.67
2022-11-16T20:17:29.739Z,78.93
2022-11-16T20:20:33.232Z,55.03
2022-11-16T20:23:45.524Z,39.75
2022-11-16T20:26:53.557Z,33.58
2022-11-16T20:29:56.778Z,32.80
2022-11-16T20:33:00.281Z,45.35
2022-11-16T20:36:10.408Z,48.13
2022-11-16T20:39:16.595Z,49.35
2022-11-16T20:42:27.872Z,34.83
2022-11-16T20:45:36.047Z,39.30
2022-11-16T20:48:43.465Z,31.70
2022-11-16T20:51:48.347Z,29.38
2022-11-16T20:54:53.891Z,30.48
2022-11-16T20:58:01.337Z,27.48
2022-11-16T21:01:06.581Z,29.53
2022-11-16T21:04:14.193Z,27.73
2022-11-16T21:07:24.232Z,27.67
2022-11-16T21:10:36.346Z,22.42
2022-11-16T21:14:00.302Z,27.27
2022-11-16T21:17:03.826Z,24.25
2022-11-16T21:23:33.226Z,27.60
2022-11-16T21:26:39.979Z,24.33
2022-11-16T21:29:48.708Z,20.00
2022-11-16T21:32:52.410Z,22.50
2022-11-16T21:35:56.728Z,19.70
2022-11-16T21:39:00.315Z,15.38
2022-11-16T21:42:03.957Z,16.55
2022-11-16T21:45:20.141Z,14.85
2022-11-16T21:48:33.582Z,17.88
2022-11-16T21:54:54.124Z,17.58
2022-11-16T21:58:04.481Z,19.05
2022-11-16T22:01:57.032Z,18.08
2022-11-16T22:05:28.375Z,19.25
2022-11-16T22:08:42.155Z,17.35
2022-11-16T22:11:51.411Z,17.65
2022-11-16T22:14:58.789Z,15.68
2022-11-16T22:18:16.118Z,18.80
2022-11-16T22:21:24.376Z,19.63
2022-11-16T22:24:32.614Z,16.85
2022-11-16T22:28:13.883Z,16.90
2022-11-16T22:35:15.406Z,20.00
2022-11-16T22:38:45.129Z,18.83
2022-11-16T22:41:51.726Z,20.50
2022-11-16T22:45:06.526Z,20.60
2022-11-16T22:48:21.518Z,20.48
2022-11-16T22:51:35.692Z,20.17
2022-11-16T22:54:58.948Z,23.63
2022-11-16T22:58:05.717Z,26.35
2022-11-16T23:01:20.133Z,25.58
2022-11-16T23:04:28.418Z,28.98
2022-11-16T23:07:47.753Z,30.45
2022-11-16T23:11:18.481Z,30.90
2022-11-16T23:14:49.471Z,29.95
2022-11-16T23:18:18.923Z,34.53
2022-11-16T23:21:41.887Z,34.35
2022-11-16T23:25:06.446Z,33.20
2022-11-16T23:28:16.679Z,32.10
2022-11-16T23:31:24.330Z,31.15
2022-11-16T23:34:32.504Z,30.50
2022-11-16T23:38:05.592Z,34.38
2022-11-16T23:41:35.123Z,33.15
2022-11-16T23:44:41.147Z,34.75
2022-11-16T23:47:53.478Z,34.40
2022-11-16T23:51:02.749Z,35.42
2022-11-16T23:54:08.651Z,31.67
2022-11-16T23:57:22.768Z,31.23
